createdAt,value
2023-08-06T00:00:09.477Z,1.52
2023-08-06T00:01:09.571Z,1.49
2023-08-06T00:02:09.548Z,1.49
2023-08-06T00:03:09.732Z,1.48
2023-08-06T00:04:09.642Z,1.49
2023-08-06T00:05:09.717Z,1.47
2023-08-06T00:06:09.740Z,1.49
2023-08-06T00:07:09.791Z,1.49
2023-08-06T00:08:09.859Z,1.50
2023-08-06T00:09:09.943Z,1.49
2023-08-06T00:10:10.273Z,1.47
2023-08-06T00:11:09.977Z,1.48
2023-08-06T00:12:10.041Z,1.49
2023-08-06T00:13:10.079Z,1.51
2023-08-06T00:14:10.159Z,1.50
2023-08-06T00:15:10.213Z,1.50
2023-08-06T00:16:10.258Z,1.47
2023-08-06T00:17:10.341Z,1.50
2023-08-06T00:18:10.330Z,1.51
2023-08-06T00:19:10.390Z,1.49
2023-08-06T00:20:10.457Z,1.50
2023-08-06T00:21:10.477Z,1.48
2023-08-06T00:22:10.548Z,1.49
2023-08-06T00:23:10.647Z,1.51
2023-08-06T00:24:10.646Z,1.50
2023-08-06T00:25:10.680Z,1.54
2023-08-06T00:26:10.724Z,1.50
2023-08-06T00:27:10.781Z,1.50
2023-08-06T00:28:10.825Z,1.51
2023-08-06T00:29:10.887Z,1.51
2023-08-06T00:30:10.901Z,1.47
2023-08-06T00:31:10.971Z,1.51
2023-08-06T00:32:10.980Z,1.50
2023-08-06T00:33:11.053Z,1.53
2023-08-06T00:34:11.064Z,1.49
2023-08-06T00:35:11.125Z,1.49
2023-08-06T00:36:11.122Z,1.52
2023-08-06T00:37:11.163Z,1.52
2023-08-06T00:38:11.217Z,1.50
2023-08-06T00:39:11.295Z,1.49
2023-08-06T00:40:11.319Z,1.51
2023-08-06T00:41:11.370Z,1.52
2023-08-06T00:42:11.431Z,1.51
2023-08-06T00:43:11.522Z,1.50
2023-08-06T00:44:11.533Z,1.50
2023-08-06T00:45:11.605Z,1.51
2023-08-06T00:46:11.650Z,1.52
2023-08-06T00:47:11.679Z,1.49
2023-08-06T00:48:11.739Z,1.50
2023-08-06T00:49:11.787Z,1.49
2023-08-06T00:50:12.300Z,1.51
2023-08-06T00:51:11.882Z,1.52
2023-08-06T00:52:11.926Z,1.51
2023-08-06T00:53:11.977Z,1.52
2023-08-06T00:54:12.029Z,1.52
2023-08-06T00:55:12.096Z,1.51
2023-08-06T00:56:12.101Z,1.49
2023-08-06T00:57:12.190Z,1.49
2023-08-06T00:58:12.240Z,1.51
2023-08-06T00:59:12.317Z,1.49
2023-08-06T01:00:12.365Z,1.48
2023-08-06T01:01:12.394Z,1.48
2023-08-06T01:02:12.414Z,1.48
2023-08-06T01:03:12.493Z,1.49
2023-08-06T01:04:12.535Z,1.48
2023-08-06T01:05:12.551Z,1.50
2023-08-06T01:06:12.618Z,1.49
2023-08-06T01:07:12.651Z,1.48
2023-08-06T01:08:12.709Z,1.49
2023-08-06T01:09:12.741Z,1.46
2023-08-06T01:10:12.816Z,1.49
2023-08-06T01:11:12.868Z,1.49
2023-08-06T01:12:12.889Z,1.47
2023-08-06T01:13:12.953Z,1.49
2023-08-06T01:14:13.008Z,1.46
2023-08-06T01:15:13.048Z,1.48
2023-08-06T01:16:13.136Z,1.46
2023-08-06T01:17:13.150Z,1.45
2023-08-06T01:18:13.205Z,1.46
2023-08-06T01:19:13.246Z,1.49
2023-08-06T01:20:13.306Z,1.47
2023-08-06T01:21:13.349Z,1.49
2023-08-06T01:22:13.417Z,1.48
2023-08-06T01:23:13.461Z,1.46
2023-08-06T01:24:13.522Z,1.48
2023-08-06T01:25:13.539Z,1.47
2023-08-06T01:26:13.611Z,1.45
2023-08-06T01:27:13.756Z,1.46
2023-08-06T01:28:13.713Z,1.48
2023-08-06T01:29:13.785Z,1.49
2023-08-06T01:30:13.827Z,1.48
2023-08-06T01:31:13.882Z,1.47
2023-08-06T01:32:13.937Z,1.47
2023-08-06T01:33:14.037Z,1.47
2023-08-06T01:34:14.016Z,1.47
2023-08-06T01:35:14.086Z,1.47
2023-08-06T01:36:14.129Z,1.49
2023-08-06T01:37:14.184Z,1.49
2023-08-06T01:38:14.238Z,1.46
2023-08-06T01:39:14.294Z,1.48
2023-08-06T01:40:14.342Z,1.46
2023-08-06T01:41:14.428Z,1.46
2023-08-06T01:42:14.434Z,1.47
2023-08-06T01:43:14.505Z,1.44
2023-08-06T01:44:14.553Z,1.47
2023-08-06T01:45:14.640Z,1.49
2023-08-06T01:46:14.712Z,1.47
2023-08-06T01:47:14.704Z,1.45
2023-08-06T01:48:14.804Z,1.46
2023-08-06T01:49:14.802Z,1.47
2023-08-06T01:50:14.878Z,1.44
2023-08-06T01:51:14.912Z,1.47
2023-08-06T01:52:14.964Z,1.44
2023-08-06T01:53:14.980Z,1.45
2023-08-06T01:54:15.065Z,1.45
2023-08-06T01:55:15.085Z,1.45
2023-08-06T01:56:15.421Z,1.43
2023-08-06T01:57:15.214Z,1.43
2023-08-06T01:58:15.242Z,1.44
2023-08-06T01:59:15.297Z,1.43
2023-08-06T02:00:15.331Z,1.45
2023-08-06T02:01:15.411Z,1.41
2023-08-06T02:02:15.452Z,1.42
2023-08-06T02:03:15.491Z,1.41
2023-08-06T02:04:15.528Z,1.38
2023-08-06T02:05:15.597Z,1.41
2023-08-06T02:06:15.650Z,1.40
2023-08-06T02:07:15.755Z,1.36
2023-08-06T02:08:15.747Z,1.35
2023-08-06T02:09:15.769Z,1.35
2023-08-06T02:10:15.838Z,1.33
2023-08-06T02:11:15.912Z,1.32
2023-08-06T02:12:15.925Z,1.33
2023-08-06T02:13:16.011Z,1.30
2023-08-06T02:14:16.008Z,1.30
2023-08-06T02:15:16.064Z,1.31
2023-08-06T02:16:16.095Z,1.29
2023-08-06T02:17:16.159Z,1.27
2023-08-06T02:18:16.205Z,1.28
2023-08-06T02:19:16.224Z,1.25
2023-08-06T02:20:16.277Z,1.26
2023-08-06T02:21:16.354Z,1.23
2023-08-06T02:22:16.359Z,1.20
2023-08-06T02:23:16.415Z,1.21
2023-08-06T02:24:16.457Z,1.22
2023-08-06T02:25:16.541Z,1.18
2023-08-06T02:26:16.547Z,1.18
2023-08-06T02:27:16.625Z,1.18
2023-08-06T02:28:16.694Z,1.16
2023-08-06T02:29:16.714Z,1.17
2023-08-06T02:30:16.818Z,1.14
2023-08-06T02:31:16.863Z,1.15
2023-08-06T02:32:16.908Z,1.14
2023-08-06T02:33:16.932Z,1.13
2023-08-06T02:34:17.013Z,1.15
2023-08-06T02:35:17.041Z,1.12
2023-08-06T02:36:17.075Z,1.12
2023-08-06T02:37:17.114Z,1.10
2023-08-06T02:38:17.203Z,1.09
2023-08-06T02:39:17.215Z,1.10
2023-08-06T02:40:17.278Z,1.09
2023-08-06T02:41:17.351Z,1.08
2023-08-06T02:42:17.410Z,1.10
2023-08-06T02:43:17.436Z,1.08
2023-08-06T02:44:17.548Z,1.07
2023-08-06T02:45:17.586Z,1.06
2023-08-06T02:46:17.581Z,1.06
2023-08-06T02:47:17.648Z,1.07
2023-08-06T02:48:17.692Z,1.06
2023-08-06T02:49:17.746Z,1.05
2023-08-06T02:50:17.825Z,1.07
2023-08-06T02:51:17.828Z,1.06
2023-08-06T02:52:17.873Z,1.06
2023-08-06T02:53:17.916Z,1.07
2023-08-06T02:54:17.961Z,1.05
2023-08-06T02:55:17.972Z,1.05
2023-08-06T02:56:18.109Z,1.03
2023-08-06T02:57:18.107Z,1.04
2023-08-06T02:58:18.115Z,1.04
2023-08-06T02:59:18.133Z,1.04
2023-08-06T03:00:18.164Z,1.02
2023-08-06T03:01:18.250Z,1.03
2023-08-06T03:02:18.251Z,1.02
2023-08-06T03:03:18.321Z,1.01
2023-08-06T03:04:18.362Z,1.05
2023-08-06T03:05:18.371Z,1.03
2023-08-06T03:06:18.444Z,1.02
2023-08-06T03:07:18.436Z,1.04
2023-08-06T03:08:18.524Z,1.05
2023-08-06T03:09:18.554Z,1.02
2023-08-06T03:10:18.559Z,1.00
2023-08-06T03:11:18.620Z,1.00
2023-08-06T03:12:18.641Z,1.00
2023-08-06T03:13:18.716Z,0.99
2023-08-06T03:14:18.752Z,0.99
2023-08-06T03:15:18.815Z,0.98
2023-08-06T03:16:18.949Z,0.94
2023-08-06T03:17:18.900Z,0.97
2023-08-06T03:18:18.963Z,0.95
2023-08-06T03:19:18.968Z,0.93
2023-08-06T03:20:19.046Z,0.94
2023-08-06T03:21:19.066Z,0.92
2023-08-06T03:22:19.110Z,0.91
2023-08-06T03:23:19.176Z,0.92
2023-08-06T03:24:19.223Z,0.91
2023-08-06T03:25:19.249Z,0.92
2023-08-06T03:26:19.309Z,0.92
2023-08-06T03:27:19.330Z,0.91
2023-08-06T03:28:19.363Z,0.89
2023-08-06T03:29:19.456Z,0.90
2023-08-06T03:30:19.443Z,0.88
2023-08-06T03:31:19.499Z,0.89
2023-08-06T03:32:19.528Z,0.86
2023-08-06T03:33:19.552Z,0.87
2023-08-06T03:34:19.587Z,0.86
2023-08-06T03:35:19.639Z,0.85
2023-08-06T03:36:19.658Z,0.84
2023-08-06T03:37:19.685Z,0.85
2023-08-06T03:38:19.715Z,0.85
2023-08-06T03:39:19.766Z,0.85
2023-08-06T03:40:19.790Z,0.84
2023-08-06T03:41:19.812Z,0.84
2023-08-06T03:42:19.895Z,0.84
2023-08-06T03:43:20.369Z,0.85
2023-08-06T03:44:19.910Z,0.84
2023-08-06T03:45:19.941Z,0.84
2023-08-06T03:46:19.916Z,0.85
2023-08-06T03:47:19.964Z,0.83
2023-08-06T03:48:19.961Z,0.82
2023-08-06T03:49:19.976Z,0.81
2023-08-06T03:50:20.021Z,0.81
2023-08-06T03:51:20.059Z,0.80
2023-08-06T03:52:20.114Z,0.80
2023-08-06T03:53:20.087Z,0.79
2023-08-06T03:54:20.062Z,0.78
2023-08-06T03:55:20.085Z,0.77
2023-08-06T03:56:20.091Z,0.77
2023-08-06T03:57:20.140Z,0.78
2023-08-06T03:58:20.147Z,0.76
2023-08-06T03:59:20.178Z,0.80
2023-08-06T04:00:20.192Z,0.78
2023-08-06T04:01:20.280Z,0.76
2023-08-06T04:02:20.207Z,0.78
2023-08-06T04:03:20.341Z,0.76
2023-08-06T04:04:20.238Z,0.75
2023-08-06T04:05:20.252Z,0.73
2023-08-06T04:06:20.294Z,0.73
2023-08-06T04:07:20.318Z,0.74
2023-08-06T04:08:20.379Z,0.74
2023-08-06T04:09:20.388Z,0.74
2023-08-06T04:10:20.398Z,0.73
2023-08-06T04:11:20.453Z,0.72
2023-08-06T04:12:22.839Z,0.73
2023-08-06T04:13:20.652Z,0.73
2023-08-06T04:14:20.700Z,0.74
2023-08-06T04:15:20.733Z,0.72
2023-08-06T04:16:20.842Z,0.72
2023-08-06T04:17:20.787Z,0.72
2023-08-06T04:18:20.798Z,0.71
2023-08-06T04:19:20.819Z,0.72
2023-08-06T04:20:20.830Z,0.73
2023-08-06T04:21:20.871Z,0.72
2023-08-06T04:22:20.908Z,0.70
2023-08-06T04:23:20.906Z,0.70
2023-08-06T04:24:20.952Z,0.70
2023-08-06T04:25:20.943Z,0.70
2023-08-06T04:26:20.966Z,0.70
2023-08-06T04:27:20.993Z,0.70
2023-08-06T04:28:21.045Z,0.70
2023-08-06T04:29:21.054Z,0.70
2023-08-06T04:30:21.095Z,0.70
2023-08-06T04:31:21.100Z,0.69
2023-08-06T04:32:21.127Z,0.70
2023-08-06T04:33:21.117Z,0.70
2023-08-06T04:34:21.137Z,0.72
2023-08-06T04:35:21.188Z,0.71
2023-08-06T04:36:21.271Z,0.70
2023-08-06T04:37:21.239Z,0.71
2023-08-06T04:38:21.256Z,0.70
2023-08-06T04:39:21.281Z,0.71
2023-08-06T04:40:21.347Z,0.71
2023-08-06T04:41:21.318Z,0.73
2023-08-06T04:42:21.319Z,0.73
2023-08-06T04:43:21.360Z,0.72
2023-08-06T04:44:21.407Z,0.72
2023-08-06T04:45:21.402Z,0.72
2023-08-06T04:46:21.485Z,0.72
2023-08-06T04:47:21.511Z,0.74
2023-08-06T04:48:21.446Z,0.73
2023-08-06T04:49:21.474Z,0.73
2023-08-06T04:50:21.535Z,0.73
2023-08-06T04:51:21.506Z,0.75
2023-08-06T04:52:21.537Z,0.74
2023-08-06T04:53:21.592Z,0.73
2023-08-06T04:54:21.621Z,0.73
2023-08-06T04:55:21.576Z,0.73
2023-08-06T04:56:21.642Z,0.72
2023-08-06T04:57:21.616Z,0.73
2023-08-06T04:58:21.677Z,0.74
2023-08-06T04:59:21.742Z,0.73
2023-08-06T05:00:21.736Z,0.73
2023-08-06T05:01:21.835Z,0.75
2023-08-06T05:02:21.866Z,0.74
2023-08-06T05:03:21.866Z,0.73
2023-08-06T05:04:21.898Z,0.74
2023-08-06T05:05:22.486Z,0.75
2023-08-06T05:06:21.986Z,0.75
2023-08-06T05:07:22.022Z,0.76
2023-08-06T05:08:22.076Z,0.75
2023-08-06T05:09:22.123Z,0.74
2023-08-06T05:10:22.173Z,0.75
2023-08-06T05:11:22.192Z,0.75
2023-08-06T05:12:22.250Z,0.75
2023-08-06T05:13:22.240Z,0.75
2023-08-06T05:14:22.287Z,0.76
2023-08-06T05:15:22.358Z,0.76
2023-08-06T05:16:22.411Z,0.76
2023-08-06T05:17:22.424Z,0.76
2023-08-06T05:18:22.425Z,0.76
2023-08-06T05:19:22.481Z,0.76
2023-08-06T05:20:22.529Z,0.75
2023-08-06T05:21:22.575Z,0.77
2023-08-06T05:22:22.618Z,0.76
2023-08-06T05:23:22.674Z,0.77
2023-08-06T05:24:23.194Z,0.77
2023-08-06T05:25:22.752Z,0.76
2023-08-06T05:26:22.799Z,0.79
2023-08-06T05:27:22.848Z,0.79
2023-08-06T05:28:22.945Z,0.77
2023-08-06T05:29:22.954Z,0.76
2023-08-06T05:30:23.009Z,0.76
2023-08-06T05:31:23.066Z,0.75
2023-08-06T05:32:23.124Z,0.75
2023-08-06T05:33:23.119Z,0.76
2023-08-06T05:34:23.192Z,0.76
2023-08-06T05:35:23.262Z,0.78
2023-08-06T05:36:23.320Z,0.80
2023-08-06T05:37:23.391Z,0.81
2023-08-06T05:38:23.460Z,0.84
2023-08-06T05:39:23.502Z,0.85
2023-08-06T05:40:23.595Z,0.88
2023-08-06T05:41:23.617Z,0.89
2023-08-06T05:42:23.676Z,0.91
2023-08-06T05:43:23.772Z,0.90
2023-08-06T05:44:23.821Z,0.91
2023-08-06T05:45:23.901Z,0.90
2023-08-06T05:46:23.939Z,0.90
2023-08-06T05:47:24.037Z,0.88
2023-08-06T05:48:24.054Z,0.89
2023-08-06T05:49:24.098Z,0.90
2023-08-06T05:50:24.149Z,0.90
2023-08-06T05:51:24.219Z,0.88
2023-08-06T05:52:24.278Z,0.88
2023-08-06T05:53:24.308Z,0.88
2023-08-06T05:54:24.364Z,0.87
2023-08-06T05:55:24.405Z,0.87
2023-08-06T05:56:24.430Z,0.87
2023-08-06T05:57:24.477Z,0.85
2023-08-06T05:58:24.524Z,0.83
2023-08-06T05:59:24.571Z,0.84
2023-08-06T06:00:24.621Z,0.81
2023-08-06T06:01:24.672Z,0.81
2023-08-06T06:02:24.781Z,0.79
2023-08-06T06:03:24.719Z,0.80
2023-08-06T06:04:24.769Z,0.79
2023-08-06T06:05:24.760Z,0.78
2023-08-06T06:06:24.816Z,0.77
2023-08-06T06:07:24.803Z,0.77
2023-08-06T06:08:24.858Z,0.76
2023-08-06T06:09:24.902Z,0.76
2023-08-06T06:10:24.945Z,0.79
2023-08-06T06:11:24.988Z,0.80
2023-08-06T06:12:25.018Z,0.80
2023-08-06T06:13:25.059Z,0.78
2023-08-06T06:14:25.069Z,0.80
2023-08-06T06:15:25.073Z,0.81
2023-08-06T06:16:25.163Z,0.82
2023-08-06T06:17:25.179Z,0.81
2023-08-06T06:18:25.167Z,0.81
2023-08-06T06:19:27.146Z,0.80
2023-08-06T06:20:25.180Z,0.77
2023-08-06T06:21:25.181Z,0.80
2023-08-06T06:22:25.150Z,0.79
2023-08-06T06:23:25.171Z,0.80
2023-08-06T06:24:25.150Z,0.78
2023-08-06T06:25:25.164Z,0.81
2023-08-06T06:26:25.172Z,0.81
2023-08-06T06:27:25.138Z,0.81
2023-08-06T06:28:25.127Z,0.81
2023-08-06T06:29:25.126Z,0.82
2023-08-06T06:30:25.118Z,0.82
2023-08-06T06:31:25.228Z,0.82
2023-08-06T06:32:25.221Z,0.83
2023-08-06T06:33:25.101Z,0.83
2023-08-06T06:34:25.200Z,0.84
2023-08-06T06:35:25.101Z,0.83
2023-08-06T06:36:25.082Z,0.84
2023-08-06T06:37:25.073Z,0.82
2023-08-06T06:38:25.051Z,0.82
2023-08-06T06:39:25.061Z,0.81
2023-08-06T06:40:25.061Z,0.81
2023-08-06T06:41:25.043Z,0.81
2023-08-06T06:42:25.018Z,0.81
2023-08-06T06:43:25.031Z,0.81
2023-08-06T06:44:25.016Z,0.81
2023-08-06T06:45:25.043Z,0.80
2023-08-06T06:46:25.021Z,0.80
2023-08-06T06:47:24.997Z,0.80
2023-08-06T06:48:24.983Z,0.80
2023-08-06T06:49:25.060Z,0.78
2023-08-06T06:50:25.049Z,0.79
2023-08-06T06:51:25.031Z,0.79
2023-08-06T06:52:24.953Z,0.78
2023-08-06T06:53:24.942Z,0.77
2023-08-06T06:54:24.952Z,0.76
2023-08-06T06:55:24.955Z,0.76
2023-08-06T06:56:24.970Z,0.76
2023-08-06T06:57:24.952Z,0.75
2023-08-06T06:58:24.924Z,0.75
2023-08-06T06:59:24.913Z,0.75
2023-08-06T07:00:24.927Z,0.74
2023-08-06T07:01:25.090Z,0.74
2023-08-06T07:02:24.944Z,0.75
2023-08-06T07:03:24.986Z,0.76
2023-08-06T07:04:24.887Z,0.77
2023-08-06T07:05:24.881Z,0.78
2023-08-06T07:06:24.918Z,0.78
2023-08-06T07:07:24.900Z,0.77
2023-08-06T07:08:24.863Z,0.77
2023-08-06T07:09:24.834Z,0.78
2023-08-06T07:10:24.855Z,0.78
2023-08-06T07:11:24.830Z,0.78
2023-08-06T07:12:24.848Z,0.80
2023-08-06T07:13:24.832Z,0.81
2023-08-06T07:14:24.824Z,0.81
2023-08-06T07:15:24.823Z,0.82
2023-08-06T07:16:24.840Z,0.82
2023-08-06T07:17:24.841Z,0.82
2023-08-06T07:18:24.799Z,0.83
2023-08-06T07:19:24.777Z,0.83
2023-08-06T07:20:24.912Z,0.83
2023-08-06T07:21:24.759Z,0.84
2023-08-06T07:22:24.780Z,0.83
2023-08-06T07:23:24.753Z,0.85
2023-08-06T07:24:24.749Z,0.85
2023-08-06T07:25:24.741Z,0.84
2023-08-06T07:26:24.718Z,0.85
2023-08-06T07:27:24.999Z,0.86
2023-08-06T07:28:24.743Z,0.85
2023-08-06T07:29:24.711Z,0.87
2023-08-06T07:30:24.733Z,0.88
2023-08-06T07:31:24.718Z,0.88
2023-08-06T07:32:24.707Z,0.87
2023-08-06T07:33:24.682Z,0.87
2023-08-06T07:34:24.682Z,0.89
2023-08-06T07:35:24.670Z,0.88
2023-08-06T07:36:24.658Z,0.88
2023-08-06T07:37:24.660Z,0.89
2023-08-06T07:38:24.632Z,0.90
2023-08-06T07:39:24.681Z,0.90
2023-08-06T07:40:24.679Z,0.90
2023-08-06T07:41:24.632Z,0.90
2023-08-06T07:42:24.645Z,0.91
2023-08-06T07:43:24.634Z,0.91
2023-08-06T07:44:24.602Z,0.91
2023-08-06T07:45:24.601Z,0.90
2023-08-06T07:46:24.638Z,0.90
2023-08-06T07:47:24.598Z,0.90
2023-08-06T07:48:24.576Z,0.90
2023-08-06T07:49:24.582Z,0.90
2023-08-06T07:50:24.593Z,0.90
2023-08-06T07:51:24.556Z,0.90
2023-08-06T07:52:24.578Z,0.90
2023-08-06T07:53:24.549Z,0.89
2023-08-06T07:54:24.567Z,0.90
2023-08-06T07:55:24.533Z,0.89
2023-08-06T07:56:24.551Z,0.90
2023-08-06T07:57:24.568Z,0.90
2023-08-06T07:58:24.539Z,0.90
2023-08-06T07:59:24.509Z,0.89
2023-08-06T08:00:24.509Z,0.89
2023-08-06T08:01:24.545Z,0.89
2023-08-06T08:02:24.565Z,0.89
2023-08-06T08:03:24.484Z,0.90
2023-08-06T08:04:24.478Z,0.90
2023-08-06T08:05:24.476Z,0.90
2023-08-06T08:06:24.479Z,0.90
2023-08-06T08:07:24.454Z,0.91
2023-08-06T08:08:24.449Z,0.90
2023-08-06T08:09:24.443Z,0.91
2023-08-06T08:10:24.420Z,0.91
2023-08-06T08:11:24.429Z,0.92
2023-08-06T08:12:24.456Z,0.91
2023-08-06T08:13:24.429Z,0.91
2023-08-06T08:14:24.438Z,0.90
2023-08-06T08:15:24.403Z,0.92
2023-08-06T08:16:24.423Z,0.91
2023-08-06T08:17:24.433Z,0.91
2023-08-06T08:18:24.549Z,0.91
2023-08-06T08:19:24.367Z,0.91
2023-08-06T08:20:24.414Z,0.91
2023-08-06T08:21:24.361Z,0.92
2023-08-06T08:22:24.346Z,0.92
2023-08-06T08:23:24.338Z,0.92
2023-08-06T08:24:24.337Z,0.91
2023-08-06T08:25:24.342Z,0.91
2023-08-06T08:26:24.375Z,0.91
2023-08-06T08:27:24.398Z,0.91
2023-08-06T08:28:24.397Z,0.91
2023-08-06T08:29:24.459Z,0.92
2023-08-06T08:30:24.479Z,0.91
2023-08-06T08:31:24.468Z,0.93
2023-08-06T08:32:24.533Z,0.91
2023-08-06T08:33:24.538Z,0.92
2023-08-06T08:34:24.590Z,0.92
2023-08-06T08:35:24.563Z,0.93
2023-08-06T08:36:24.616Z,0.91
2023-08-06T08:37:24.637Z,0.92
2023-08-06T08:38:24.721Z,0.92
2023-08-06T08:39:24.653Z,0.91
2023-08-06T08:40:24.716Z,0.93
2023-08-06T08:41:24.750Z,0.91
2023-08-06T08:42:24.809Z,0.92
2023-08-06T08:43:24.796Z,0.92
2023-08-06T08:44:24.805Z,0.92
2023-08-06T08:45:24.889Z,0.92
2023-08-06T08:46:24.929Z,0.92
2023-08-06T08:47:24.923Z,0.93
2023-08-06T08:48:25.006Z,0.92
2023-08-06T08:49:24.956Z,0.92
2023-08-06T08:50:24.983Z,0.91
2023-08-06T08:51:25.044Z,0.91
2023-08-06T08:52:25.064Z,0.92
2023-08-06T08:53:25.083Z,0.90
2023-08-06T08:54:25.100Z,0.89
2023-08-06T08:55:25.172Z,0.89
2023-08-06T08:56:25.183Z,0.90
2023-08-06T08:57:25.164Z,0.88
2023-08-06T08:58:25.221Z,0.89
2023-08-06T08:59:25.247Z,0.88
2023-08-06T09:00:25.272Z,0.88
2023-08-06T09:01:25.305Z,0.87
2023-08-06T09:02:25.337Z,0.87
2023-08-06T09:03:25.408Z,0.87
2023-08-06T09:04:25.376Z,0.87
2023-08-06T09:05:25.399Z,0.88
2023-08-06T09:06:25.418Z,0.87
2023-08-06T09:07:25.435Z,0.87
2023-08-06T09:08:25.475Z,0.87
2023-08-06T09:09:25.491Z,0.87
2023-08-06T09:10:25.522Z,0.87
2023-08-06T09:11:25.542Z,0.88
2023-08-06T09:12:25.558Z,0.88
2023-08-06T09:13:25.563Z,0.87
2023-08-06T09:14:26.030Z,0.88
2023-08-06T09:15:25.591Z,0.89
2023-08-06T09:16:25.695Z,0.88
2023-08-06T09:17:25.762Z,0.88
2023-08-06T09:18:25.696Z,0.88
2023-08-06T09:19:25.709Z,0.88
2023-08-06T09:20:25.713Z,0.88
2023-08-06T09:21:25.769Z,0.88
2023-08-06T09:22:25.781Z,0.88
2023-08-06T09:23:25.822Z,0.88
2023-08-06T09:24:25.842Z,0.88
2023-08-06T09:25:25.838Z,0.90
2023-08-06T09:26:25.913Z,0.88
2023-08-06T09:27:25.911Z,0.89
2023-08-06T09:28:25.945Z,0.90
2023-08-06T09:29:25.983Z,0.90
2023-08-06T09:30:25.974Z,0.88
2023-08-06T09:31:26.031Z,0.89
2023-08-06T09:32:26.113Z,0.89
2023-08-06T09:33:26.044Z,0.89
2023-08-06T09:34:26.090Z,0.89
2023-08-06T09:35:26.085Z,0.90
2023-08-06T09:36:26.103Z,0.88
2023-08-06T09:37:26.190Z,0.88
2023-08-06T09:38:26.135Z,0.88
2023-08-06T09:39:26.181Z,0.87
2023-08-06T09:40:26.173Z,0.87
2023-08-06T09:41:26.242Z,0.87
2023-08-06T09:42:26.259Z,0.87
2023-08-06T09:43:26.281Z,0.87
2023-08-06T09:44:26.288Z,0.87
2023-08-06T09:45:26.285Z,0.85
2023-08-06T09:46:26.299Z,0.86
2023-08-06T09:47:26.354Z,0.85
2023-08-06T09:48:26.344Z,0.84
2023-08-06T09:49:26.409Z,0.82
2023-08-06T09:50:26.411Z,0.83
2023-08-06T09:51:26.433Z,0.83
2023-08-06T09:52:26.426Z,0.83
2023-08-06T09:53:26.490Z,0.82
2023-08-06T09:54:28.179Z,0.83
2023-08-06T09:55:26.512Z,0.81
2023-08-06T09:56:26.544Z,0.81
2023-08-06T09:57:26.568Z,0.80
2023-08-06T09:58:26.574Z,0.81
2023-08-06T09:59:26.624Z,0.80
2023-08-06T10:00:26.650Z,0.80
2023-08-06T10:01:26.656Z,0.80
2023-08-06T10:02:26.724Z,0.80
2023-08-06T10:03:26.816Z,0.80
2023-08-06T10:04:30.882Z,0.80
2023-08-06T10:05:27.739Z,0.80
2023-08-06T10:06:26.690Z,0.80
2023-08-06T10:07:26.701Z,0.80
2023-08-06T10:08:26.709Z,0.78
2023-08-06T10:09:26.693Z,0.77
2023-08-06T10:10:26.717Z,0.76
2023-08-06T10:11:26.678Z,0.75
2023-08-06T10:12:26.645Z,0.74
2023-08-06T10:13:26.667Z,0.74
2023-08-06T10:14:26.651Z,0.73
2023-08-06T10:15:26.677Z,0.71
2023-08-06T10:16:26.728Z,0.72
2023-08-06T10:18:26.704Z,0.71
2023-08-06T10:19:26.607Z,0.71
2023-08-06T10:20:26.644Z,0.72
2023-08-06T10:21:26.608Z,0.73
2023-08-06T10:22:26.621Z,0.72
2023-08-06T10:23:26.589Z,0.71
2023-08-06T10:24:26.566Z,0.70
2023-08-06T10:25:26.564Z,0.69
2023-08-06T10:26:26.603Z,0.68
2023-08-06T10:27:26.596Z,0.67
2023-08-06T10:28:26.633Z,0.67
2023-08-06T10:29:26.652Z,0.66
2023-08-06T10:30:26.737Z,0.65
2023-08-06T10:31:26.705Z,0.64
2023-08-06T10:32:26.737Z,0.60
2023-08-06T10:33:26.727Z,0.58
2023-08-06T10:34:26.742Z,0.56
2023-08-06T10:35:26.789Z,0.54
2023-08-06T10:36:26.787Z,0.54
2023-08-06T10:37:26.782Z,0.52
2023-08-06T10:38:26.831Z,0.51
2023-08-06T10:39:31.391Z,0.51
2023-08-06T10:40:26.858Z,0.51
2023-08-06T10:41:26.833Z,0.50
2023-08-06T10:42:26.863Z,0.50
2023-08-06T10:43:26.820Z,0.50
2023-08-06T10:44:32.275Z,0.49
2023-08-06T10:45:27.788Z,0.51
2023-08-06T10:46:26.818Z,0.50
2023-08-06T10:47:26.784Z,0.49
2023-08-06T10:48:26.796Z,0.49
2023-08-06T10:49:26.776Z,0.49
2023-08-06T10:50:26.750Z,0.51
2023-08-06T10:51:26.753Z,0.50
2023-08-06T10:52:26.738Z,0.50
2023-08-06T10:53:26.746Z,0.51
2023-08-06T10:54:26.741Z,0.51
2023-08-06T10:55:26.744Z,0.51
2023-08-06T10:56:26.722Z,0.51
2023-08-06T10:57:26.729Z,0.51
2023-08-06T10:58:26.685Z,0.50
2023-08-06T10:59:26.697Z,0.50
2023-08-06T11:00:26.748Z,0.50
2023-08-06T11:01:26.735Z,0.50
2023-08-06T11:02:26.722Z,0.50
2023-08-06T11:03:26.662Z,0.50
2023-08-06T11:04:26.640Z,0.51
2023-08-06T11:05:26.649Z,0.51
2023-08-06T11:06:26.633Z,0.51
2023-08-06T11:07:26.636Z,0.51
2023-08-06T11:08:26.634Z,0.50
2023-08-06T11:09:26.638Z,0.50
2023-08-06T11:10:26.675Z,0.51
2023-08-06T11:11:26.601Z,0.51
2023-08-06T11:12:26.602Z,0.50
2023-08-06T11:13:26.635Z,0.52
2023-08-06T11:14:26.670Z,0.53
2023-08-06T11:15:26.701Z,0.54
2023-08-06T11:16:26.804Z,0.52
2023-08-06T11:17:26.732Z,0.53
2023-08-06T11:18:26.717Z,0.54
2023-08-06T11:19:26.812Z,0.54
2023-08-06T11:20:26.768Z,0.55
2023-08-06T11:21:26.818Z,0.55
2023-08-06T11:22:26.831Z,0.55
2023-08-06T11:23:26.830Z,0.53
2023-08-06T11:24:26.851Z,0.51
2023-08-06T11:25:26.875Z,0.51
2023-08-06T11:26:26.892Z,0.52
2023-08-06T11:27:26.909Z,0.53
2023-08-06T11:28:26.941Z,0.53
2023-08-06T11:29:26.953Z,0.51
2023-08-06T11:30:26.975Z,0.51
2023-08-06T11:31:27.011Z,0.51
2023-08-06T11:32:27.018Z,0.52
2023-08-06T11:33:27.022Z,0.51
2023-08-06T11:34:27.033Z,0.51
2023-08-06T11:35:27.068Z,0.53
2023-08-06T11:36:27.599Z,0.53
2023-08-06T11:37:27.100Z,0.53
2023-08-06T11:38:27.125Z,0.54
2023-08-06T11:39:27.132Z,0.53
2023-08-06T11:40:27.154Z,0.54
2023-08-06T11:41:27.170Z,0.55
2023-08-06T11:42:27.201Z,0.56
2023-08-06T11:43:27.314Z,0.54
2023-08-06T11:44:27.228Z,0.54
2023-08-06T11:45:27.266Z,0.52
2023-08-06T11:46:27.435Z,0.51
2023-08-06T11:47:27.343Z,0.52
2023-08-06T11:48:27.313Z,0.53
2023-08-06T11:49:27.353Z,0.52
2023-08-06T11:50:27.368Z,0.51
2023-08-06T11:51:27.400Z,0.50
2023-08-06T11:52:27.436Z,0.51
2023-08-06T11:53:27.434Z,0.50
2023-08-06T11:54:27.531Z,0.51
2023-08-06T11:55:27.502Z,0.50
2023-08-06T11:56:27.542Z,0.51
2023-08-06T11:57:27.538Z,0.52
2023-08-06T11:58:27.541Z,0.51
2023-08-06T11:59:27.586Z,0.52
2023-08-06T12:00:27.616Z,0.51
2023-08-06T12:01:27.645Z,0.51
2023-08-06T12:02:27.631Z,0.51
2023-08-06T12:03:27.645Z,0.51
2023-08-06T12:04:27.695Z,0.52
2023-08-06T12:05:27.678Z,0.51
2023-08-06T12:06:27.714Z,0.50
2023-08-06T12:07:27.716Z,0.50
2023-08-06T12:08:27.724Z,0.50
2023-08-06T12:09:27.757Z,0.50
2023-08-06T12:10:27.822Z,0.50
2023-08-06T12:11:27.816Z,0.51
2023-08-06T12:12:27.817Z,0.50
2023-08-06T12:13:27.942Z,0.50
2023-08-06T12:14:27.877Z,0.51
2023-08-06T12:15:27.908Z,0.51
2023-08-06T12:16:28.061Z,0.50
2023-08-06T12:17:27.969Z,0.50
2023-08-06T12:18:27.947Z,0.51
2023-08-06T12:19:27.961Z,0.50
2023-08-06T12:20:27.970Z,0.51
2023-08-06T12:21:28.006Z,0.50
2023-08-06T12:22:28.020Z,0.50
2023-08-06T12:23:28.010Z,0.51
2023-08-06T12:24:28.037Z,0.50
2023-08-06T12:25:28.063Z,0.50
2023-08-06T12:26:28.085Z,0.51
2023-08-06T12:27:28.114Z,0.51
2023-08-06T12:28:28.109Z,0.51
2023-08-06T12:29:28.145Z,0.51
2023-08-06T12:30:28.217Z,0.50
2023-08-06T12:31:28.175Z,0.51
2023-08-06T12:32:28.240Z,0.50
2023-08-06T12:33:28.251Z,0.51
2023-08-06T12:34:31.177Z,0.50
2023-08-06T12:35:29.251Z,0.50
2023-08-06T12:36:28.248Z,0.48
2023-08-06T12:37:28.245Z,0.48
2023-08-06T12:38:28.226Z,0.47
2023-08-06T12:39:28.217Z,0.47
2023-08-06T12:40:35.451Z,0.51
2023-08-06T12:41:29.212Z,0.51
2023-08-06T12:42:28.214Z,0.51
2023-08-06T12:43:28.185Z,0.50
2023-08-06T12:44:28.165Z,0.49
2023-08-06T12:45:28.190Z,0.49
2023-08-06T12:46:28.183Z,0.50
2023-08-06T12:47:28.207Z,0.50
2023-08-06T12:48:28.165Z,0.50
2023-08-06T12:49:28.147Z,0.50
2023-08-06T12:50:28.134Z,0.51
2023-08-06T12:51:28.111Z,0.51
2023-08-06T12:52:28.143Z,0.52
2023-08-06T12:53:28.100Z,0.52
2023-08-06T12:54:28.114Z,0.52
2023-08-06T12:55:29.687Z,0.52
2023-08-06T12:56:28.089Z,0.53
2023-08-06T12:57:36.569Z,0.51
2023-08-06T12:58:29.103Z,0.51
2023-08-06T12:59:28.075Z,0.51
2023-08-06T13:00:28.143Z,0.50
2023-08-06T13:01:28.104Z,0.49
2023-08-06T13:02:28.123Z,0.49
2023-08-06T13:03:29.675Z,0.50
2023-08-06T13:04:28.114Z,0.51
2023-08-06T13:05:28.022Z,0.50
2023-08-06T13:06:28.029Z,0.50
2023-08-06T13:07:28.024Z,0.50
2023-08-06T13:08:27.994Z,0.50
2023-08-06T13:09:28.828Z,0.52
2023-08-06T13:10:28.001Z,0.52
2023-08-06T13:11:27.999Z,0.52
2023-08-06T13:12:27.989Z,0.51
2023-08-06T13:13:28.001Z,0.51
2023-08-06T13:14:27.945Z,0.51
2023-08-06T13:15:27.964Z,0.51
2023-08-06T13:16:27.996Z,0.51
2023-08-06T13:17:27.996Z,0.51
2023-08-06T13:18:27.920Z,0.53
2023-08-06T13:19:27.939Z,0.55